createdAt,value
2018-09-03T00:00:40.698Z,16.00
2018-09-03T00:03:09.085Z,17.13
2018-09-03T00:05:37.418Z,16.37
2018-09-03T00:08:05.871Z,16.87
2018-09-03T00:10:34.171Z,17.00
2018-09-03T00:13:02.560Z,17.53
2018-09-03T00:15:30.924Z,20.93
2018-09-03T00:17:59.379Z,18.27
2018-09-03T00:20:27.757Z,18.57
2018-09-03T00:22:56.107Z,16.90
2018-09-03T00:25:24.634Z,17.87
2018-09-03T00:27:52.965Z,18.00
2018-09-03T00:30:21.338Z,18.27
2018-09-03T00:32:55.112Z,18.37
2018-09-03T00:36:30.528Z,18.73
2018-09-03T00:39:04.328Z,18.83
2018-09-03T00:41:37.832Z,20.20
2018-09-03T00:44:11.611Z,17.77
2018-09-03T00:46:45.405Z,20.37
2018-09-03T00:49:13.912Z,18.00
2018-09-03T00:51:42.280Z,20.43
2018-09-03T00:54:10.744Z,18.07
2018-09-03T00:56:39.149Z,19.00
2018-09-03T00:59:07.533Z,19.20
2018-09-03T01:01:35.872Z,22.23
2018-09-03T01:04:04.332Z,20.23
2018-09-03T01:06:32.632Z,23.47
2018-09-03T01:09:01.053Z,19.70
2018-09-03T01:11:29.379Z,20.40
2018-09-03T01:13:57.817Z,23.23
2018-09-03T01:16:26.137Z,21.03
2018-09-03T01:18:56.492Z,22.80
2018-09-03T01:21:25.820Z,18.37
2018-09-03T01:23:54.644Z,20.40
2018-09-03T01:26:23.210Z,21.80
2018-09-03T01:28:51.796Z,22.87
2018-09-03T01:31:21.047Z,21.57
2018-09-03T01:33:51.994Z,22.57
2018-09-03T01:36:20.754Z,20.17
2018-09-03T01:38:49.158Z,20.40
2018-09-03T01:41:18.588Z,19.80
2018-09-03T01:43:47.375Z,21.93
2018-09-03T01:46:15.815Z,21.20
2018-09-03T01:48:44.212Z,19.80
2018-09-03T01:51:12.676Z,21.87
2018-09-03T01:53:41.048Z,21.40
2018-09-03T01:56:09.422Z,20.13
2018-09-03T01:58:37.827Z,20.30
2018-09-03T02:01:06.207Z,22.33
2018-09-03T02:03:35.584Z,22.00
2018-09-03T02:06:04.036Z,20.77
2018-09-03T02:08:32.408Z,20.77
2018-09-03T02:11:00.768Z,21.33
2018-09-03T02:13:30.120Z,20.13
2018-09-03T02:15:58.567Z,20.70
2018-09-03T02:18:26.924Z,20.10
2018-09-03T02:20:55.487Z,21.13
2018-09-03T02:23:24.048Z,22.50
2018-09-03T02:25:52.479Z,22.03
2018-09-03T02:28:20.828Z,21.67
2018-09-03T02:30:49.241Z,19.87
2018-09-03T02:33:17.583Z,20.07
2018-09-03T02:35:45.964Z,21.17
2018-09-03T02:38:14.317Z,21.67
2018-09-03T02:40:42.732Z,21.40
2018-09-03T02:43:11.128Z,24.07
2018-09-03T02:45:39.469Z,19.30
2018-09-03T02:48:07.882Z,20.87
2018-09-03T02:50:36.373Z,21.27
2018-09-03T02:53:04.790Z,20.53
2018-09-03T02:55:33.081Z,19.83
2018-09-03T02:58:01.508Z,22.30
2018-09-03T03:00:29.821Z,22.30
2018-09-03T03:02:58.729Z,20.47
2018-09-03T03:05:28.314Z,23.90
2018-09-03T03:07:57.063Z,21.93
2018-09-03T03:10:25.433Z,19.33
2018-09-03T03:12:53.839Z,20.73
2018-09-03T03:15:22.236Z,19.20
2018-09-03T03:17:50.557Z,20.97
2018-09-03T03:20:18.851Z,21.23
2018-09-03T03:22:47.167Z,22.23
2018-09-03T03:25:15.482Z,21.60
2018-09-03T03:27:43.791Z,26.53
2018-09-03T03:30:12.116Z,24.17
2018-09-03T03:32:40.462Z,23.73
2018-09-03T03:35:09.957Z,24.10
2018-09-03T03:37:38.387Z,21.00
2018-09-03T03:40:06.800Z,23.63
2018-09-03T03:42:35.169Z,25.90
2018-09-03T03:45:03.573Z,20.57
2018-09-03T03:47:31.913Z,22.60
2018-09-03T03:50:00.205Z,23.40
2018-09-03T03:52:28.586Z,24.63
2018-09-03T03:54:57.036Z,23.13
2018-09-03T03:57:25.379Z,22.13
2018-09-03T03:59:53.744Z,24.17
2018-09-03T04:02:22.240Z,23.40
2018-09-03T04:04:50.622Z,21.83
2018-09-03T04:07:18.988Z,23.33
2018-09-03T04:09:47.356Z,23.57
2018-09-03T04:12:15.741Z,23.00
2018-09-03T04:14:44.108Z,21.03
2018-09-03T04:17:12.602Z,22.87
2018-09-03T04:19:40.964Z,24.47
2018-09-03T04:22:09.421Z,21.03
2018-09-03T04:24:37.941Z,21.43
2018-09-03T04:27:06.354Z,21.70
2018-09-03T04:29:34.676Z,21.20
2018-09-03T04:32:03.184Z,22.87
2018-09-03T04:34:31.560Z,23.57
2018-09-03T04:36:59.920Z,21.93
2018-09-03T04:39:28.322Z,20.57
2018-09-03T04:41:56.719Z,20.90
2018-09-03T04:44:25.136Z,22.47
2018-09-03T04:46:53.476Z,20.77
2018-09-03T04:49:21.804Z,20.10
2018-09-03T04:51:50.136Z,21.23
2018-09-03T04:54:18.503Z,21.63
2018-09-03T04:56:46.884Z,21.27
2018-09-03T04:59:15.381Z,20.30
2018-09-03T05:01:43.865Z,19.90
2018-09-03T05:04:12.762Z,20.60
2018-09-03T05:06:41.248Z,20.57
2018-09-03T05:09:09.697Z,20.33
2018-09-03T05:11:38.238Z,22.73
2018-09-03T05:14:06.752Z,20.33
2018-09-03T05:16:35.136Z,20.37
2018-09-03T05:19:03.520Z,20.20
2018-09-03T05:21:31.999Z,19.53
2018-09-03T05:24:00.539Z,21.90
2018-09-03T05:26:29.043Z,20.27
2018-09-03T05:28:57.642Z,21.17
2018-09-03T05:31:26.180Z,20.70
2018-09-03T05:33:54.682Z,22.73
2018-09-03T05:36:23.180Z,20.07
2018-09-03T05:38:51.613Z,21.30
2018-09-03T05:41:19.941Z,23.03
2018-09-03T05:43:48.504Z,20.43
2018-09-03T05:46:17.425Z,21.13
2018-09-03T05:48:45.800Z,21.07
2018-09-03T05:51:14.212Z,22.13
2018-09-03T05:53:42.570Z,21.17
2018-09-03T05:56:12.031Z,21.33
2018-09-03T05:58:40.354Z,23.40
2018-09-03T06:01:08.762Z,20.67
2018-09-03T06:03:37.172Z,20.73
2018-09-03T06:06:05.549Z,21.00
2018-09-03T06:08:33.896Z,23.13
2018-09-03T06:11:02.332Z,22.10
2018-09-03T06:13:30.738Z,22.13
2018-09-03T06:15:59.172Z,19.83
2018-09-03T06:18:27.564Z,22.80
2018-09-03T06:20:55.991Z,22.60
2018-09-03T06:23:24.408Z,21.87
2018-09-03T06:25:52.734Z,21.03
2018-09-03T06:28:21.097Z,21.17
2018-09-03T06:30:49.503Z,20.70
2018-09-03T06:33:17.875Z,21.07
2018-09-03T06:35:46.241Z,20.23
2018-09-03T06:38:14.632Z,23.87
2018-09-03T06:40:42.960Z,23.73
2018-09-03T06:43:11.390Z,21.87
2018-09-03T06:45:39.777Z,22.03
2018-09-03T06:48:08.119Z,22.10
2018-09-03T06:50:36.560Z,20.23
2018-09-03T06:53:04.976Z,23.33
2018-09-03T06:55:33.304Z,19.23
2018-09-03T06:58:01.658Z,20.90
2018-09-03T07:00:29.991Z,22.33
2018-09-03T07:02:58.309Z,21.30
2018-09-03T07:05:26.621Z,22.17
2018-09-03T07:07:54.959Z,21.07
2018-09-03T07:10:23.311Z,22.13
2018-09-03T07:12:51.628Z,21.73
2018-09-03T07:15:19.946Z,22.10
2018-09-03T07:17:48.300Z,22.10
2018-09-03T07:20:16.593Z,25.33
2018-09-03T07:22:44.899Z,21.30
2018-09-03T07:25:13.198Z,21.60
2018-09-03T07:27:41.501Z,20.93
2018-09-03T07:30:09.814Z,23.17
2018-09-03T07:32:38.118Z,22.00
2018-09-03T07:35:06.501Z,21.20
2018-09-03T07:37:34.795Z,22.87
2018-09-03T07:40:03.095Z,23.93
2018-09-03T07:42:31.424Z,24.53
2018-09-03T07:44:59.840Z,21.77
2018-09-03T07:47:28.239Z,23.00
2018-09-03T07:49:56.580Z,22.57
2018-09-03T07:52:24.987Z,22.53
2018-09-03T07:54:53.456Z,29.30
2018-09-03T07:57:21.806Z,20.80
2018-09-03T07:59:50.219Z,23.47
2018-09-03T08:02:18.620Z,21.37
2018-09-03T08:04:46.911Z,23.83
2018-09-03T08:07:15.257Z,21.37
2018-09-03T08:09:43.680Z,21.50
2018-09-03T08:12:13.094Z,22.50
2018-09-03T08:14:41.482Z,22.37
2018-09-03T08:17:09.912Z,22.07
2018-09-03T08:19:38.259Z,21.93
2018-09-03T08:22:06.679Z,22.47
2018-09-03T08:24:35.012Z,21.27
2018-09-03T08:27:04.549Z,21.00
2018-09-03T08:29:32.888Z,20.97
2018-09-03T08:32:01.315Z,21.90
2018-09-03T08:34:29.792Z,20.00
2018-09-03T08:36:58.103Z,21.57
2018-09-03T08:39:26.726Z,21.77
2018-09-03T08:41:55.167Z,21.00
2018-09-03T08:44:23.543Z,20.27
2018-09-03T08:46:51.871Z,22.80
2018-09-03T08:49:20.254Z,21.40
2018-09-03T08:51:48.599Z,20.30
2018-09-03T08:54:16.931Z,21.23
2018-09-03T08:56:45.330Z,24.97
2018-09-03T08:59:13.638Z,22.07
2018-09-03T09:01:42.009Z,22.63
2018-09-03T09:04:10.436Z,22.03
2018-09-03T09:06:38.787Z,21.93
2018-09-03T09:09:07.950Z,23.67
2018-09-03T09:11:36.347Z,21.50
2018-09-03T09:14:04.742Z,22.20
2018-09-03T09:16:33.188Z,22.17
2018-09-03T09:19:01.500Z,21.93
2018-09-03T09:21:29.931Z,22.27
2018-09-03T09:23:58.292Z,23.10
2018-09-03T09:26:26.643Z,22.07
2018-09-03T09:28:55.029Z,24.93
2018-09-03T09:31:23.480Z,21.57
2018-09-03T09:33:51.949Z,22.40
2018-09-03T09:36:20.246Z,21.60
2018-09-03T09:38:48.639Z,22.43
2018-09-03T09:41:17.049Z,22.93
2018-09-03T09:43:45.408Z,22.63
2018-09-03T09:46:13.760Z,22.37
2018-09-03T09:48:42.200Z,23.03
2018-09-03T09:51:10.475Z,21.77
2018-09-03T09:53:38.854Z,20.90
2018-09-03T09:56:07.365Z,21.57
2018-09-03T09:58:35.671Z,20.27
2018-09-03T10:01:09.409Z,21.03
2018-09-03T10:03:37.773Z,20.60
2018-09-03T10:06:06.368Z,21.10
2018-09-03T10:08:34.688Z,20.50
2018-09-03T10:11:03.315Z,22.57
2018-09-03T10:13:31.603Z,20.37
2018-09-03T10:15:59.905Z,21.60
2018-09-03T10:18:29.390Z,21.57
2018-09-03T10:20:57.816Z,20.53
2018-09-03T10:23:28.547Z,20.03
2018-09-03T10:25:57.003Z,21.47
2018-09-03T10:28:26.371Z,20.30
2018-09-03T10:30:54.875Z,20.73
2018-09-03T10:33:23.258Z,21.57
2018-09-03T10:35:51.608Z,22.90
2018-09-03T10:38:20.137Z,22.37
2018-09-03T10:40:48.443Z,22.13
2018-09-03T10:43:16.856Z,22.30
2018-09-03T10:45:46.223Z,23.47
2018-09-03T10:48:16.152Z,22.40
2018-09-03T10:50:45.068Z,22.27
2018-09-03T10:53:13.419Z,23.00
2018-09-03T10:55:41.991Z,25.53
2018-09-03T10:58:11.635Z,23.93
2018-09-03T11:00:40.742Z,22.27
2018-09-03T11:03:10.169Z,23.23
2018-09-03T11:05:38.554Z,22.60
2018-09-03T11:08:06.992Z,26.17
2018-09-03T11:10:35.511Z,23.03
2018-09-03T11:13:03.943Z,24.00
2018-09-03T11:15:32.921Z,22.97
2018-09-03T11:18:01.350Z,23.27
2018-09-03T11:20:30.432Z,24.33
2018-09-03T11:22:59.376Z,22.77
2018-09-03T11:25:29.884Z,23.53
2018-09-03T11:27:58.284Z,25.73
2018-09-03T11:30:27.164Z,23.90
2018-09-03T11:32:59.784Z,27.27
2018-09-03T11:35:28.109Z,25.90
2018-09-03T11:37:56.462Z,23.90
2018-09-03T11:40:25.345Z,23.93
2018-09-03T11:42:53.691Z,24.83
2018-09-03T11:45:23.110Z,26.93
2018-09-03T11:47:51.445Z,22.87
2018-09-03T11:50:20.520Z,24.70
2018-09-03T11:52:48.950Z,22.40
2018-09-03T11:55:17.339Z,25.70
2018-09-03T11:57:45.713Z,23.13
2018-09-03T12:00:19.561Z,22.87
2018-09-03T12:02:48.042Z,26.93
2018-09-03T12:05:16.376Z,27.60
2018-09-03T12:07:44.771Z,23.67
2018-09-03T12:10:13.181Z,23.43
2018-09-03T12:12:41.497Z,24.93
2018-09-03T12:15:14.255Z,24.70
2018-09-03T12:17:42.578Z,24.90
2018-09-03T12:20:11.078Z,24.77
2018-09-03T12:22:39.421Z,23.23
2018-09-03T12:25:07.802Z,23.20
2018-09-03T12:27:36.147Z,22.90
2018-09-03T12:30:04.589Z,20.90
2018-09-03T12:32:32.908Z,19.87
2018-09-03T12:35:01.317Z,19.73
2018-09-03T12:37:29.724Z,20.03
2018-09-03T12:39:58.050Z,22.03
2018-09-03T12:42:26.407Z,22.33
2018-09-03T12:44:54.682Z,18.67
2018-09-03T12:47:23.110Z,16.03
2018-09-03T12:49:51.513Z,16.60
2018-09-03T12:52:19.776Z,15.93
2018-09-03T12:54:48.112Z,17.23
2018-09-03T12:57:16.422Z,17.47
2018-09-03T12:59:44.748Z,14.20
2018-09-03T13:02:13.181Z,13.57
2018-09-03T13:04:41.472Z,13.13
2018-09-03T13:07:09.750Z,14.23
2018-09-03T13:09:38.082Z,14.40
2018-09-03T13:12:06.395Z,13.23
2018-09-03T13:14:34.780Z,16.13
2018-09-03T13:17:03.491Z,14.27
2018-09-03T13:19:31.889Z,13.77
2018-09-03T13:22:00.239Z,13.20
2018-09-03T13:24:28.684Z,12.93
2018-09-03T13:26:57.094Z,11.73
2018-09-03T13:29:25.423Z,11.23
2018-09-03T13:31:53.776Z,10.63
2018-09-03T13:34:22.328Z,11.23
2018-09-03T13:36:50.734Z,11.43
2018-09-03T13:39:19.055Z,11.83
2018-09-03T13:41:47.376Z,10.63
2018-09-03T13:44:15.920Z,10.23
2018-09-03T13:46:44.205Z,10.03
2018-09-03T13:49:12.645Z,9.30
2018-09-03T13:51:40.947Z,9.10
2018-09-03T13:54:09.261Z,8.37
2018-09-03T13:56:37.564Z,7.50
2018-09-03T13:59:05.937Z,8.63
2018-09-03T14:01:34.252Z,8.70
2018-09-03T14:04:03.108Z,8.50
2018-09-03T14:06:31.486Z,8.97
2018-09-03T14:08:59.759Z,7.63
2018-09-03T14:11:28.082Z,7.07
2018-09-03T14:13:56.496Z,7.40
2018-09-03T14:16:24.929Z,7.73
2018-09-03T14:18:53.352Z,7.70
2018-09-03T14:21:21.668Z,7.47
2018-09-03T14:23:50.036Z,7.87
2018-09-03T14:26:18.368Z,8.00
2018-09-03T14:28:46.718Z,8.23
2018-09-03T14:31:15.046Z,7.40
2018-09-03T14:33:43.369Z,7.93
2018-09-03T14:36:11.900Z,7.20
2018-09-03T14:38:40.213Z,9.60
2018-09-03T14:41:08.532Z,7.93
2018-09-03T14:43:36.900Z,8.23
2018-09-03T14:46:05.299Z,8.33
2018-09-03T14:48:33.620Z,8.30
2018-09-03T14:51:02.140Z,9.03
2018-09-03T14:53:30.441Z,7.97
2018-09-03T14:55:58.786Z,7.40
2018-09-03T14:58:27.128Z,7.77
2018-09-03T15:00:55.452Z,7.60
2018-09-03T15:03:24.043Z,8.23
2018-09-03T15:05:52.327Z,8.83
2018-09-03T15:08:20.692Z,9.43
2018-09-03T15:10:49.007Z,7.60
2018-09-03T15:13:17.328Z,10.23
2018-09-03T15:15:45.840Z,8.00
2018-09-03T15:18:14.190Z,8.10
2018-09-03T15:20:42.618Z,7.70
2018-09-03T15:23:11.019Z,8.00
2018-09-03T15:25:39.387Z,8.40
2018-09-03T15:28:07.781Z,7.90
2018-09-03T15:30:36.149Z,10.10
2018-09-03T15:33:04.483Z,8.57
2018-09-03T15:35:32.833Z,8.13
2018-09-03T15:38:01.153Z,9.57
2018-09-03T15:40:29.525Z,8.10
2018-09-03T15:42:57.893Z,9.20
2018-09-03T15:45:26.182Z,8.70
2018-09-03T15:47:54.696Z,7.80
2018-09-03T15:50:23.220Z,8.33
2018-09-03T15:52:51.685Z,8.27
2018-09-03T15:55:20.011Z,8.43
2018-09-03T15:57:48.435Z,8.83
2018-09-03T16:00:16.827Z,9.73
2018-09-03T16:02:45.152Z,7.93
2018-09-03T16:05:13.536Z,8.23
2018-09-03T16:07:41.843Z,7.53
2018-09-03T16:10:10.251Z,7.93
2018-09-03T16:12:38.613Z,7.43
2018-09-03T16:18:08.785Z,8.53
2018-09-03T16:20:37.227Z,8.50
2018-09-03T16:23:05.831Z,7.73
2018-09-03T16:25:35.272Z,8.30
2018-09-03T16:28:03.916Z,8.90
2018-09-03T16:30:32.564Z,7.97
2018-09-03T16:33:01.017Z,7.67
2018-09-03T16:35:29.443Z,7.50
2018-09-03T16:37:57.845Z,7.27
2018-09-03T16:40:26.225Z,7.80
2018-09-03T16:42:54.586Z,7.40
2018-09-03T16:45:22.984Z,7.33
2018-09-03T16:47:51.320Z,7.17
2018-09-03T16:50:19.750Z,10.17
2018-09-03T16:52:48.065Z,7.13
2018-09-03T16:55:17.433Z,8.70
2018-09-03T16:57:45.724Z,12.83
2018-09-03T17:00:14.064Z,10.60
2018-09-03T17:02:42.480Z,16.40
2018-09-03T17:05:11.033Z,8.27
2018-09-03T17:07:39.474Z,10.97
2018-09-03T17:10:07.859Z,8.00
2018-09-03T17:12:36.258Z,8.13
2018-09-03T17:15:05.612Z,7.73
2018-09-03T17:17:34.135Z,8.67
2018-09-03T17:20:02.524Z,9.60
2018-09-03T17:22:30.941Z,9.23
2018-09-03T17:24:59.389Z,8.50
2018-09-03T17:27:28.724Z,8.90
2018-09-03T17:29:57.426Z,8.00
2018-09-03T17:32:25.852Z,7.97
2018-09-03T17:34:54.200Z,7.53
2018-09-03T17:37:22.712Z,6.90
2018-09-03T17:39:51.328Z,7.23
2018-09-03T17:42:19.719Z,7.23
2018-09-03T17:44:48.109Z,7.40
2018-09-03T17:47:16.416Z,9.60
2018-09-03T17:49:45.006Z,12.03
2018-09-03T17:52:13.558Z,14.70
2018-09-03T17:54:42.108Z,21.77
2018-09-03T17:57:10.542Z,14.27
2018-09-03T17:59:38.987Z,9.77
2018-09-03T18:02:07.532Z,8.80
2018-09-03T18:04:35.939Z,9.70
2018-09-03T18:07:04.392Z,9.50
2018-09-03T18:09:32.847Z,8.37
2018-09-03T18:12:01.292Z,11.37
2018-09-03T18:14:29.769Z,11.00
2018-09-03T18:16:58.221Z,11.20
2018-09-03T18:19:26.716Z,11.37
2018-09-03T18:21:55.115Z,14.00
2018-09-03T18:24:23.489Z,13.30
2018-09-03T18:26:51.811Z,17.10
2018-09-03T18:29:20.207Z,13.77
2018-09-03T18:31:48.590Z,14.83
2018-09-03T18:34:16.978Z,14.33
2018-09-03T18:36:47.420Z,12.67
2018-09-03T18:39:15.772Z,13.50
2018-09-03T18:41:44.271Z,18.07
2018-09-03T18:44:12.621Z,15.43
2018-09-03T18:46:40.965Z,14.77
2018-09-03T18:49:09.302Z,14.07
2018-09-03T18:51:37.849Z,15.03
2018-09-03T18:54:06.326Z,13.80
2018-09-03T18:56:34.723Z,14.43
2018-09-03T18:59:03.171Z,17.37
2018-09-03T19:01:31.632Z,16.73
2018-09-03T19:04:00.066Z,19.23
2018-09-03T19:06:29.304Z,16.73
2018-09-03T19:08:57.668Z,19.57
2018-09-03T19:11:27.571Z,17.50
2018-09-03T19:13:56.084Z,18.17
2018-09-03T19:16:24.586Z,17.27
2018-09-03T19:18:53.312Z,15.83
2018-09-03T19:21:21.733Z,13.87
2018-09-03T19:23:50.125Z,17.47
2018-09-03T19:26:18.478Z,19.70
2018-09-03T19:28:46.903Z,16.77
2018-09-03T19:31:15.434Z,21.67
2018-09-03T19:33:43.835Z,30.87
2018-09-03T19:36:12.121Z,24.67
2018-09-03T19:38:40.449Z,16.63
2018-09-03T19:41:09.764Z,14.87
2018-09-03T19:43:38.424Z,13.17
2018-09-03T19:46:08.204Z,13.57
2018-09-03T19:48:38.207Z,12.30
2018-09-03T19:51:06.591Z,11.83
2018-09-03T19:53:34.915Z,11.73
2018-09-03T19:56:03.221Z,11.20
2018-09-03T19:58:31.586Z,13.07
2018-09-03T20:00:59.892Z,12.23
2018-09-03T20:03:28.267Z,13.70
2018-09-03T20:05:58.669Z,14.77
2018-09-03T20:08:27.124Z,14.10
2018-09-03T20:10:55.461Z,16.40
2018-09-03T20:13:24.033Z,15.87
2018-09-03T20:15:52.482Z,15.17
2018-09-03T20:18:20.889Z,13.47
2018-09-03T20:20:49.315Z,14.80
2018-09-03T20:23:17.816Z,17.37
2018-09-03T20:25:46.092Z,15.33
2018-09-03T20:28:14.528Z,15.30
2018-09-03T20:30:43.065Z,15.30
2018-09-03T20:33:11.538Z,16.13
2018-09-03T20:35:39.892Z,19.80
2018-09-03T20:38:08.311Z,17.20
2018-09-03T20:40:36.684Z,15.87
2018-09-03T20:43:05.175Z,15.43
2018-09-03T20:45:33.594Z,15.33
2018-09-03T20:48:01.973Z,16.20
2018-09-03T20:50:30.321Z,16.67
2018-09-03T20:52:58.720Z,16.37
2018-09-03T20:55:27.111Z,14.23
2018-09-03T20:57:55.443Z,15.10
2018-09-03T21:00:23.995Z,14.67
2018-09-03T21:02:52.363Z,15.47
2018-09-03T21:05:20.832Z,16.40
2018-09-03T21:07:49.194Z,14.73
2018-09-03T21:10:17.634Z,14.80
2018-09-03T21:12:46.060Z,15.43
2018-09-03T21:15:14.373Z,16.57
2018-09-03T21:17:42.752Z,18.00
2018-09-03T21:20:11.156Z,15.60
2018-09-03T21:22:39.572Z,15.40
2018-09-03T21:25:07.935Z,15.53
2018-09-03T21:27:36.547Z,15.63
2018-09-03T21:30:05.395Z,14.97
2018-09-03T21:32:33.870Z,15.93
2018-09-03T21:35:02.350Z,15.73
2018-09-03T21:37:30.800Z,19.20
2018-09-03T21:39:59.195Z,17.97
2018-09-03T21:42:27.590Z,17.53
2018-09-03T21:44:55.968Z,17.47
2018-09-03T21:47:24.569Z,20.83
2018-09-03T21:49:52.910Z,21.83
2018-09-03T21:52:21.648Z,18.27
2018-09-03T21:54:50.043Z,20.07
2018-09-03T21:57:18.503Z,17.37
2018-09-03T21:59:46.879Z,15.93
2018-09-03T22:02:15.238Z,17.03
2018-09-03T22:04:43.648Z,16.87
2018-09-03T22:07:12.412Z,18.03
2018-09-03T22:09:40.990Z,20.53
2018-09-03T22:12:09.631Z,18.30
2018-09-03T22:14:38.039Z,17.43
2018-09-03T22:17:06.649Z,17.17
2018-09-03T22:19:35.239Z,16.67
2018-09-03T22:22:03.588Z,17.73
2018-09-03T22:24:32.021Z,15.10
2018-09-03T22:27:00.359Z,15.77
2018-09-03T22:29:28.807Z,15.13
2018-09-03T22:31:57.349Z,15.43
2018-09-03T22:34:25.733Z,17.20
2018-09-03T22:36:54.143Z,15.20
2018-09-03T22:39:22.629Z,18.63
2018-09-03T22:41:51.081Z,18.60
2018-09-03T22:44:19.441Z,17.07
2018-09-03T22:46:47.812Z,15.90
2018-09-03T22:49:16.232Z,16.97
2018-09-03T22:51:44.585Z,18.23
2018-09-03T22:54:13.208Z,20.00
2018-09-03T22:56:41.615Z,17.80
2018-09-03T22:59:10.000Z,15.87
2018-09-03T23:01:38.380Z,19.07
2018-09-03T23:04:06.766Z,18.03
2018-09-03T23:06:35.136Z,17.17
2018-09-03T23:09:04.850Z,18.27
2018-09-03T23:11:33.261Z,17.97
2018-09-03T23:14:01.636Z,19.00
2018-09-03T23:16:30.015Z,18.87
2018-09-03T23:18:58.335Z,19.43
2018-09-03T23:21:26.800Z,18.90
2018-09-03T23:23:55.149Z,18.73
2018-09-03T23:26:23.663Z,18.67
2018-09-03T23:28:52.021Z,20.23
2018-09-03T23:31:20.461Z,19.03
2018-09-03T23:33:48.849Z,20.03
2018-09-03T23:36:17.187Z,21.63
2018-09-03T23:38:45.606Z,20.40
2018-09-03T23:41:14.060Z,18.73
2018-09-03T23:43:42.470Z,19.37
2018-09-03T23:46:10.965Z,19.13
2018-09-03T23:48:39.363Z,19.10
2018-09-03T23:51:07.780Z,20.10
2018-09-03T23:53:36.200Z,23.93
2018-09-03T23:56:04.616Z,20.97
2018-09-03T23:58:32.968Z,20.93
